createdAt,value
2019-05-17T00:00:27.401Z,101500.52
2019-05-17T00:03:36.512Z,101508.13
2019-05-17T00:06:47.464Z,101502.38
2019-05-17T00:09:57.130Z,101498.46
2019-05-17T00:13:07.568Z,101498.66
2019-05-17T00:16:17.509Z,101490.27
2019-05-17T00:19:26.436Z,101491.53
2019-05-17T00:22:36.624Z,101491.24
2019-05-17T00:25:47.004Z,101486.84
2019-05-17T00:28:56.272Z,101484.02
2019-05-17T00:32:06.493Z,101485.55
2019-05-17T00:35:17.554Z,101481.99
2019-05-17T00:38:27.423Z,101483.34
2019-05-17T00:41:37.458Z,101475.20
2019-05-17T00:44:47.363Z,101473.22
2019-05-17T00:48:06.803Z,101458.30
2019-05-17T00:51:27.432Z,101461.01
2019-05-17T00:54:36.280Z,101462.20
2019-05-17T00:57:47.241Z,101461.47
2019-05-17T01:00:57.159Z,101459.27
2019-05-17T01:04:06.889Z,101458.26
2019-05-17T01:07:17.706Z,101457.24
2019-05-17T01:10:27.206Z,101463.15
2019-05-17T01:13:37.433Z,101459.09
2019-05-17T01:16:47.490Z,101456.91
2019-05-17T01:19:57.357Z,101458.46
2019-05-17T01:23:07.719Z,101457.45
2019-05-17T01:26:18.415Z,101449.47
2019-05-17T01:29:26.941Z,101452.33
2019-05-17T01:32:37.481Z,101448.78
2019-05-17T01:35:46.589Z,101445.70
2019-05-17T01:38:57.686Z,101442.70
2019-05-17T01:42:06.796Z,101439.72
2019-05-17T01:45:16.629Z,101431.23
2019-05-17T01:48:36.544Z,101429.03
2019-05-17T01:51:46.520Z,101422.16
2019-05-17T01:54:57.139Z,101418.79
2019-05-17T01:58:16.413Z,101422.16
2019-05-17T02:01:27.409Z,101415.11
2019-05-17T02:04:37.713Z,101402.23
2019-05-17T02:07:46.762Z,101400.55
2019-05-17T02:10:57.429Z,101403.91
2019-05-17T02:14:06.966Z,101404.76
2019-05-17T02:17:17.422Z,101403.07
2019-05-17T02:20:27.552Z,101396.48
2019-05-17T02:23:46.936Z,101397.95
2019-05-17T02:26:57.104Z,101392.61
2019-05-17T02:30:08.144Z,101379.66
2019-05-17T02:33:17.771Z,101386.24
2019-05-17T02:36:36.618Z,101389.58
2019-05-17T02:39:58.314Z,101389.23
2019-05-17T02:42:55.733Z,101392.44
2019-05-17T02:46:04.513Z,101394.52
2019-05-17T02:49:13.852Z,101396.89
2019-05-17T02:52:23.074Z,101397.56
2019-05-17T02:55:32.411Z,101402.95
2019-05-17T02:58:43.918Z,101399.74
2019-05-17T03:01:52.668Z,101401.04
2019-05-17T03:05:03.943Z,101398.63
2019-05-17T03:08:12.389Z,101398.61
2019-05-17T03:11:22.709Z,101400.36
2019-05-17T03:14:32.741Z,101410.94
2019-05-17T03:17:43.452Z,101401.88
2019-05-17T03:20:52.721Z,101401.31
2019-05-17T03:24:03.503Z,101405.38
2019-05-17T03:27:13.484Z,101411.63
2019-05-17T03:30:25.801Z,101402.23
2019-05-17T03:33:35.965Z,101405.10
2019-05-17T03:36:56.379Z,101402.58
2019-05-17T03:40:35.332Z,101403.08
2019-05-17T03:43:25.459Z,101396.88
2019-05-17T03:46:44.235Z,101390.45
2019-05-17T03:49:53.198Z,101380.95
2019-05-17T03:53:13.160Z,101378.36
2019-05-17T03:56:22.536Z,101384.89
2019-05-17T03:59:33.463Z,101387.42
2019-05-17T04:02:44.511Z,101386.19
2019-05-17T04:05:52.894Z,101398.52
2019-05-17T04:09:13.847Z,101391.34
2019-05-17T04:12:23.185Z,101399.63
2019-05-17T04:15:32.855Z,101395.41
2019-05-17T04:18:53.473Z,101397.77
2019-05-17T04:22:03.496Z,101399.31
2019-05-17T04:25:13.586Z,101402.22
2019-05-17T04:28:23.205Z,101392.10
2019-05-17T04:31:34.810Z,101394.79
2019-05-17T04:34:43.722Z,101396.84
2019-05-17T04:37:53.265Z,101398.86
2019-05-17T04:41:41.303Z,101404.69
2019-05-17T04:44:43.166Z,101401.66
2019-05-17T04:47:52.843Z,101413.23
2019-05-17T04:51:02.709Z,101408.11
2019-05-17T04:54:13.714Z,101407.87
2019-05-17T04:57:23.595Z,101402.38
2019-05-17T05:00:33.955Z,101398.76
2019-05-17T05:03:43.144Z,101397.82
2019-05-17T05:07:03.101Z,101398.82
2019-05-17T05:10:13.424Z,101397.98
2019-05-17T05:13:22.873Z,101394.95
2019-05-17T05:16:32.105Z,101386.42
2019-05-17T05:19:53.118Z,101384.27
2019-05-17T05:23:02.621Z,101388.99
2019-05-17T05:26:12.049Z,101385.23
2019-05-17T05:29:32.150Z,101388.08
2019-05-17T05:32:42.612Z,101392.47
2019-05-17T05:35:51.683Z,101393.75
2019-05-17T05:39:02.416Z,101392.89
2019-05-17T05:42:13.834Z,101404.49
2019-05-17T05:45:22.777Z,101391.58
2019-05-17T05:48:32.868Z,101399.92
2019-05-17T05:51:42.534Z,101402.94
2019-05-17T05:55:01.674Z,101397.14
2019-05-17T05:58:12.115Z,101402.79
2019-05-17T06:01:21.968Z,101400.67
2019-05-17T06:04:31.839Z,101401.38
2019-05-17T06:07:41.657Z,101387.80
2019-05-17T06:11:02.197Z,101387.47
2019-05-17T06:14:12.142Z,101391.20
2019-05-17T06:17:21.634Z,101385.98
2019-05-17T06:20:32.406Z,101385.22
2019-05-17T06:23:53.314Z,101384.69
2019-05-17T06:27:02.100Z,101385.69
2019-05-17T06:30:23.064Z,101377.19
2019-05-17T06:33:42.308Z,101375.17
2019-05-17T06:37:02.317Z,101374.30
2019-05-17T06:40:13.118Z,101377.30
2019-05-17T06:43:21.901Z,101370.83
2019-05-17T06:46:32.508Z,101365.34
2019-05-17T06:49:42.455Z,101369.88
2019-05-17T06:52:53.203Z,101366.73
2019-05-17T06:56:03.002Z,101367.25
2019-05-17T06:59:11.816Z,101358.02
2019-05-17T07:02:20.519Z,101368.01
2019-05-17T07:05:31.988Z,101360.88
2019-05-17T07:08:55.196Z,101364.32
2019-05-17T07:12:03.878Z,101364.02
2019-05-17T07:15:12.981Z,101369.53
2019-05-17T07:18:32.037Z,101378.22
2019-05-17T07:21:40.688Z,101370.38
2019-05-17T07:24:50.229Z,101374.38
2019-05-17T07:28:00.444Z,101372.52
2019-05-17T07:31:10.155Z,101372.20
2019-05-17T07:34:19.999Z,101373.69
2019-05-17T07:37:30.328Z,101376.78
2019-05-17T07:40:39.881Z,101369.16
2019-05-17T07:44:01.773Z,101358.50
2019-05-17T07:47:10.399Z,101363.55
2019-05-17T07:50:20.067Z,101360.28
2019-05-17T07:53:30.699Z,101350.70
2019-05-17T07:56:40.242Z,101353.56
2019-05-17T07:59:59.980Z,101354.23
2019-05-17T08:03:12.641Z,101352.04
2019-05-17T08:06:19.849Z,101348.02
2019-05-17T08:09:30.052Z,101351.25
2019-05-17T08:12:40.565Z,101346.48
2019-05-17T08:15:50.203Z,101354.10
2019-05-17T08:19:09.769Z,101348.00
2019-05-17T08:22:20.222Z,101352.00
2019-05-17T08:25:30.492Z,101360.33
2019-05-17T08:28:49.924Z,101357.59
2019-05-17T08:32:00.353Z,101358.17
2019-05-17T08:35:11.185Z,101359.66
2019-05-17T08:38:19.936Z,101354.34
2019-05-17T08:41:30.914Z,101354.83
2019-05-17T08:44:40.071Z,101361.06
2019-05-17T08:48:00.365Z,101351.84
2019-05-17T08:51:10.775Z,101359.98
2019-05-17T08:54:23.091Z,101352.72
2019-05-17T08:57:32.880Z,101351.66
2019-05-17T09:00:42.877Z,101353.14
2019-05-17T09:03:52.073Z,101344.89
2019-05-17T09:07:03.159Z,101345.91
2019-05-17T09:10:11.129Z,101346.25
2019-05-17T09:13:19.805Z,101338.08
2019-05-17T09:16:31.206Z,101333.61
2019-05-17T09:19:42.574Z,101321.31
2019-05-17T09:22:51.289Z,101321.81
2019-05-17T09:26:02.017Z,101319.09
2019-05-17T09:29:10.906Z,101319.88
2019-05-17T09:32:20.100Z,101318.92
2019-05-17T09:35:30.020Z,101307.41
2019-05-17T09:38:40.515Z,101316.42
2019-05-17T09:41:50.261Z,101316.10
2019-05-17T09:45:00.350Z,101320.02
2019-05-17T09:48:10.228Z,101302.07
2019-05-17T09:51:30.328Z,101304.89
2019-05-17T09:54:45.134Z,101296.30
2019-05-17T09:57:49.806Z,101301.16
2019-05-17T10:01:01.072Z,101285.69
2019-05-17T10:04:12.965Z,101292.18
2019-05-17T10:07:20.809Z,101287.41
2019-05-17T10:10:29.291Z,101284.25
2019-05-17T10:13:37.895Z,101283.91
2019-05-17T10:16:56.773Z,101268.00
2019-05-17T10:20:06.122Z,101266.64
2019-05-17T10:23:24.970Z,101265.20
2019-05-17T10:26:33.585Z,101261.50
2019-05-17T10:29:42.211Z,101252.11
2019-05-17T10:32:50.899Z,101255.28
2019-05-17T10:36:00.518Z,101256.27
2019-05-17T10:39:10.111Z,101246.31
2019-05-17T10:42:20.939Z,101250.20
2019-05-17T10:45:30.485Z,101242.85
2019-05-17T10:48:41.115Z,101236.14
2019-05-17T10:51:49.594Z,101243.33
2019-05-17T10:54:59.904Z,101243.03
2019-05-17T10:58:09.974Z,101238.09
2019-05-17T11:01:20.038Z,101242.33
2019-05-17T11:04:28.759Z,101233.58
2019-05-17T11:07:37.422Z,101231.38
2019-05-17T11:10:46.089Z,101217.59
2019-05-17T11:13:54.713Z,101220.50
2019-05-17T11:17:03.509Z,101226.39
2019-05-17T11:20:13.096Z,101225.98
2019-05-17T11:23:21.626Z,101232.61
2019-05-17T11:26:32.048Z,101236.63
2019-05-17T11:29:40.574Z,101229.73
2019-05-17T11:32:49.275Z,101228.08
2019-05-17T11:35:57.972Z,101221.65
2019-05-17T11:39:07.867Z,101221.20
2019-05-17T11:42:26.635Z,101206.82
2019-05-17T11:45:35.173Z,101213.00
2019-05-17T11:48:43.782Z,101201.13
2019-05-17T11:51:52.488Z,101197.30
2019-05-17T11:55:01.106Z,101198.33
2019-05-17T11:58:09.835Z,101200.72
2019-05-17T12:01:18.462Z,101196.53
2019-05-17T12:04:27.064Z,101195.34
2019-05-17T12:07:45.891Z,101179.58
2019-05-17T12:10:54.833Z,101182.51
2019-05-17T12:14:03.486Z,101182.03
2019-05-17T12:17:12.267Z,101182.80
2019-05-17T12:20:23.535Z,101182.30
2019-05-17T12:23:31.785Z,101173.19
2019-05-17T12:26:50.744Z,101179.64
2019-05-17T12:29:59.365Z,101173.37
2019-05-17T12:33:08.481Z,101169.84
2019-05-17T12:36:17.015Z,101166.14
2019-05-17T12:39:25.901Z,101161.38
2019-05-17T12:42:34.632Z,101160.62
2019-05-17T12:45:58.043Z,101161.32
2019-05-17T12:49:04.522Z,101154.20
2019-05-17T12:52:13.151Z,101155.36
2019-05-17T12:55:21.745Z,101165.95
2019-05-17T12:58:30.409Z,101162.91
2019-05-17T13:01:39.121Z,101162.45
2019-05-17T13:04:47.739Z,101164.34
2019-05-17T13:07:56.377Z,101162.50
2019-05-17T13:11:05.254Z,101160.61
2019-05-17T13:14:13.843Z,101148.14
2019-05-17T13:17:22.568Z,101150.66
2019-05-17T13:20:41.343Z,101147.33
2019-05-17T13:23:49.968Z,101149.45
2019-05-17T13:26:58.569Z,101150.82
2019-05-17T13:30:10.383Z,101145.02
2019-05-17T13:33:19.586Z,101143.73
2019-05-17T13:36:28.158Z,101139.45
2019-05-17T13:39:36.727Z,101134.05
2019-05-17T13:42:45.479Z,101132.33
2019-05-17T13:45:54.233Z,101126.09
2019-05-17T13:49:04.779Z,101126.32
2019-05-17T13:52:13.449Z,101125.43
2019-05-17T13:55:22.122Z,101122.86
2019-05-17T13:58:30.785Z,101120.08
2019-05-17T14:01:49.537Z,101126.86
2019-05-17T14:04:58.050Z,101119.38
2019-05-17T14:08:06.656Z,101129.34
2019-05-17T14:11:15.340Z,101123.94
2019-05-17T14:14:24.007Z,101129.82
2019-05-17T14:17:32.622Z,101128.21
2019-05-17T14:20:41.160Z,101128.97
2019-05-17T14:24:00.028Z,101127.91
2019-05-17T14:27:08.549Z,101130.88
2019-05-17T14:30:17.376Z,101130.00
2019-05-17T14:33:25.985Z,101136.34
2019-05-17T14:36:34.684Z,101131.48
2019-05-17T14:39:43.320Z,101130.59
2019-05-17T14:42:53.493Z,101128.88
2019-05-17T14:46:02.150Z,101125.02
2019-05-17T14:49:20.874Z,101124.06
2019-05-17T14:52:29.527Z,101125.63
2019-05-17T14:55:38.080Z,101122.62
2019-05-17T14:58:46.828Z,101122.52
2019-05-17T15:01:57.351Z,101125.37
2019-05-17T15:05:06.565Z,101122.09
2019-05-17T15:08:15.193Z,101113.27
2019-05-17T15:11:23.868Z,101113.64
2019-05-17T15:14:32.502Z,101105.48
2019-05-17T15:17:41.160Z,101109.38
2019-05-17T15:20:49.783Z,101107.64
2019-05-17T15:23:58.424Z,101102.62
2019-05-17T15:27:07.249Z,101095.78
2019-05-17T15:30:16.795Z,101094.97
2019-05-17T15:33:25.402Z,101097.70
2019-05-17T15:36:34.153Z,101092.33
2019-05-17T15:39:42.762Z,101085.86
2019-05-17T15:42:51.282Z,101076.95
2019-05-17T15:45:59.776Z,101079.45
2019-05-17T15:49:18.764Z,101073.69
2019-05-17T15:52:27.684Z,101075.98
2019-05-17T15:55:46.707Z,101073.92
2019-05-17T15:58:55.336Z,101080.70
2019-05-17T16:02:04.264Z,101073.42
2019-05-17T16:05:14.086Z,101075.81
2019-05-17T16:08:23.129Z,101069.38
2019-05-17T16:11:30.262Z,101078.54
2019-05-17T16:14:38.883Z,101066.91
2019-05-17T16:17:47.506Z,101054.98
2019-05-17T16:20:56.159Z,101058.28
2019-05-17T16:24:14.825Z,101061.25
2019-05-17T16:27:23.383Z,101055.23
2019-05-17T16:30:32.167Z,101048.94
2019-05-17T16:33:40.716Z,101050.11
2019-05-17T16:36:49.375Z,101049.20
2019-05-17T16:39:57.992Z,101062.08
2019-05-17T16:43:17.594Z,101046.39
2019-05-17T16:46:17.130Z,101048.48
2019-05-17T16:49:35.805Z,101049.70
2019-05-17T16:52:44.585Z,101049.17
2019-05-17T16:55:53.158Z,101044.84
2019-05-17T16:59:01.971Z,101047.80
2019-05-17T17:02:10.968Z,101044.95
2019-05-17T17:05:19.533Z,101040.70
2019-05-17T17:08:28.256Z,101036.56
2019-05-17T17:11:36.781Z,101048.83
2019-05-17T17:14:46.855Z,101044.00
2019-05-17T17:17:55.519Z,101042.38
2019-05-17T17:21:14.237Z,101033.30
2019-05-17T17:24:22.850Z,101031.10
2019-05-17T17:27:31.466Z,101024.38
2019-05-17T17:30:40.168Z,101031.06
2019-05-17T17:33:48.898Z,101030.53
2019-05-17T17:36:57.402Z,101034.33
2019-05-17T17:40:06.795Z,101038.31
2019-05-17T17:43:16.366Z,101042.19
2019-05-17T17:46:35.164Z,101033.45
2019-05-17T17:49:44.082Z,101036.03
2019-05-17T17:52:53.919Z,101026.66
2019-05-17T17:56:02.644Z,101031.70
2019-05-17T17:59:11.247Z,101033.87
2019-05-17T18:02:19.874Z,101028.74
2019-05-17T18:05:28.507Z,101040.55
2019-05-17T18:08:47.228Z,101027.72
2019-05-17T18:11:55.786Z,101033.95
2019-05-17T18:15:06.506Z,101038.20
2019-05-17T18:18:16.313Z,101040.51
2019-05-17T18:21:25.003Z,101037.95
2019-05-17T18:24:33.657Z,101039.18
2019-05-17T18:27:42.290Z,101038.48
2019-05-17T18:30:50.911Z,101040.91
2019-05-17T18:34:09.746Z,101042.82
2019-05-17T18:37:18.368Z,101048.16
2019-05-17T18:40:27.037Z,101054.81
2019-05-17T18:43:35.684Z,101049.13
2019-05-17T18:46:44.346Z,101058.81
2019-05-17T18:49:52.950Z,101065.94
2019-05-17T18:53:05.060Z,101055.63
2019-05-17T18:56:11.973Z,101061.44
2019-05-17T18:59:30.642Z,101063.55
2019-05-17T19:02:39.280Z,101065.20
2019-05-17T19:05:47.911Z,101064.09
2019-05-17T19:08:56.553Z,101075.32
2019-05-17T19:12:05.269Z,101083.66
2019-05-17T19:15:15.249Z,101077.45
2019-05-17T19:18:24.062Z,101083.24
2019-05-17T19:21:44.102Z,101081.84
2019-05-17T19:24:52.892Z,101092.13
2019-05-17T19:28:01.521Z,101089.76
2019-05-17T19:31:10.023Z,101090.30
2019-05-17T19:34:18.978Z,101092.48
2019-05-17T19:37:27.517Z,101093.39
2019-05-17T19:40:36.123Z,101103.38
2019-05-17T19:43:54.922Z,101097.52
2019-05-17T19:47:03.822Z,101103.48
2019-05-17T19:50:12.702Z,101100.70
2019-05-17T19:53:24.013Z,101096.09
2019-05-17T19:56:31.173Z,101107.39
2019-05-17T19:59:39.696Z,101097.06
2019-05-17T20:02:48.233Z,101097.52
2019-05-17T20:06:07.097Z,101092.50
2019-05-17T20:09:15.927Z,101093.12
2019-05-17T20:12:24.637Z,101091.84
2019-05-17T20:15:34.898Z,101086.33
2019-05-17T20:18:43.376Z,101095.39
2019-05-17T20:21:51.869Z,101094.34
2019-05-17T20:25:00.497Z,101097.06
2019-05-17T20:28:09.162Z,101095.77
2019-05-17T20:31:28.047Z,101086.88
2019-05-17T20:34:36.688Z,101090.16
2019-05-17T20:37:45.322Z,101090.23
2019-05-17T20:40:54.110Z,101085.13
2019-05-17T20:44:02.756Z,101087.98
2019-05-17T20:47:11.300Z,101082.43
2019-05-17T20:50:19.926Z,101080.84
2019-05-17T20:53:28.525Z,101080.55
2019-05-17T20:56:47.298Z,101078.58
2019-05-17T20:59:55.827Z,101080.56
2019-05-17T21:03:04.358Z,101080.66
2019-05-17T21:06:13.145Z,101080.04
2019-05-17T21:09:21.687Z,101072.08
2019-05-17T21:12:30.209Z,101066.75
2019-05-17T21:15:49.152Z,101067.80
2019-05-17T21:18:57.685Z,101074.90
2019-05-17T21:22:06.224Z,101073.95
2019-05-17T21:25:15.255Z,101069.70
2019-05-17T21:28:23.785Z,101069.45
2019-05-17T21:31:32.388Z,101070.89
2019-05-17T21:34:40.989Z,101069.86
2019-05-17T21:37:49.575Z,101071.53
2019-05-17T21:41:08.309Z,101065.15
2019-05-17T21:44:16.945Z,101069.86
2019-05-17T21:47:25.464Z,101067.47
2019-05-17T21:50:33.999Z,101073.83
2019-05-17T21:53:42.516Z,101076.74
2019-05-17T21:56:51.211Z,101071.28
2019-05-17T22:00:13.578Z,101074.72
2019-05-17T22:03:22.156Z,101071.68
2019-05-17T22:06:30.714Z,101079.17
2019-05-17T22:09:39.265Z,101076.34
2019-05-17T22:12:47.859Z,101076.91
2019-05-17T22:15:56.525Z,101070.84
2019-05-17T22:19:05.107Z,101072.72
2019-05-17T22:22:23.732Z,101074.31
2019-05-17T22:25:32.365Z,101064.69
2019-05-17T22:28:40.883Z,101070.52
2019-05-17T22:31:49.413Z,101066.89
2019-05-17T22:34:58.044Z,101068.88
2019-05-17T22:38:06.587Z,101067.93
2019-05-17T22:41:25.434Z,101064.69
2019-05-17T22:44:34.065Z,101068.33
2019-05-17T22:47:42.721Z,101067.92
2019-05-17T22:50:51.302Z,101064.77
2019-05-17T22:53:59.908Z,101067.92
2019-05-17T22:57:08.446Z,101059.73
2019-05-17T23:00:17.248Z,101060.94
2019-05-17T23:03:35.950Z,101053.91
2019-05-17T23:06:44.688Z,101050.95
2019-05-17T23:09:53.356Z,101053.27
2019-05-17T23:13:02.009Z,101052.59
2019-05-17T23:16:12.845Z,101049.71
2019-05-17T23:19:21.359Z,101047.39
2019-05-17T23:22:29.991Z,101050.70
2019-05-17T23:25:38.503Z,101049.39
2019-05-17T23:28:47.233Z,101045.73
2019-05-17T23:31:55.862Z,101042.81
2019-05-17T23:35:04.786Z,101044.69
2019-05-17T23:38:13.426Z,101043.20
2019-05-17T23:41:32.058Z,101037.95
2019-05-17T23:44:40.667Z,101040.56
2019-05-17T23:47:49.307Z,101046.05
2019-05-17T23:50:57.920Z,101045.26
2019-05-17T23:54:06.564Z,101045.14
2019-05-17T23:57:15.082Z,101042.36
